createdAt,value
2022-11-22T00:02:59.900Z,96700.03
2022-11-22T00:08:01.847Z,96713.41
2022-11-22T00:13:04.925Z,96705.06
2022-11-22T00:18:06.905Z,96707.91
2022-11-22T00:23:08.612Z,96697.19
2022-11-22T00:28:10.527Z,96695.84
2022-11-22T00:33:12.381Z,96672.34
2022-11-22T00:38:14.268Z,96665.75
2022-11-22T00:43:16.065Z,96671.81
2022-11-22T00:48:18.359Z,96669.56
2022-11-22T00:53:20.417Z,96691.09
2022-11-22T00:58:22.541Z,96693.28
2022-11-22T01:03:25.173Z,96695.97
2022-11-22T01:08:27.390Z,96687.78
2022-11-22T01:13:29.920Z,96691.56
2022-11-22T01:18:32.156Z,96687.41
2022-11-22T01:23:35.732Z,96680.69
2022-11-22T01:28:37.581Z,96668.06
2022-11-22T01:33:39.313Z,96661.63
2022-11-22T01:38:41.137Z,96657.09
2022-11-22T01:43:43.245Z,96650.50
2022-11-22T01:48:48.117Z,96652.25
2022-11-22T01:53:51.454Z,96652.25
2022-11-22T01:59:00.227Z,96653.06
2022-11-22T02:04:04.748Z,96645.41
2022-11-22T02:09:14.665Z,96636.00
2022-11-22T02:14:19.660Z,96639.34
2022-11-22T02:19:38.221Z,96621.75
2022-11-22T02:24:47.153Z,96622.84
2022-11-22T02:29:49.064Z,96630.94
2022-11-22T02:34:51.515Z,96633.50
2022-11-22T02:39:58.768Z,96633.06
2022-11-22T02:45:00.667Z,96629.41
2022-11-22T02:50:02.533Z,96624.31
2022-11-22T02:55:04.803Z,96607.66
2022-11-22T03:00:07.500Z,96605.53
2022-11-22T03:05:12.496Z,96597.88
2022-11-22T03:10:14.695Z,96603.13
2022-11-22T03:15:16.476Z,96609.03
2022-11-22T03:20:18.630Z,96618.31
2022-11-22T03:25:20.763Z,96624.06
2022-11-22T03:30:23.180Z,96622.31
2022-11-22T03:35:25.075Z,96619.63
2022-11-22T03:40:26.862Z,96616.94
2022-11-22T03:45:29.459Z,96597.97
2022-11-22T03:50:31.706Z,96599.72
2022-11-22T03:55:33.939Z,96588.56
2022-11-22T04:00:36.138Z,96593.66
2022-11-22T04:05:37.955Z,96589.88
2022-11-22T04:10:39.662Z,96587.03
2022-11-22T04:15:41.520Z,96579.06
2022-11-22T04:21:02.024Z,96558.34
2022-11-22T04:26:03.784Z,96552.16
2022-11-22T04:31:23.997Z,96560.97
2022-11-22T04:36:25.798Z,96554.34
2022-11-22T04:41:27.626Z,96567.31
2022-11-22T04:46:31.546Z,96556.53
2022-11-22T04:51:51.669Z,96546.34
2022-11-22T04:56:53.549Z,96558.69
2022-11-22T05:01:55.540Z,96547.53
2022-11-22T05:06:57.416Z,96530.28
2022-11-22T05:11:59.509Z,96532.84
2022-11-22T05:17:01.564Z,96537.00
2022-11-22T05:22:03.421Z,96542.91
2022-11-22T05:27:05.293Z,96550.59
2022-11-22T05:32:07.069Z,96547.22
2022-11-22T05:37:08.891Z,96550.44
2022-11-22T05:42:10.860Z,96549.34
2022-11-22T05:47:12.887Z,96546.47
2022-11-22T05:52:14.863Z,96544.44
2022-11-22T05:57:16.830Z,96560.28
2022-11-22T06:02:18.940Z,96554.06
2022-11-22T06:07:20.916Z,96557.28
2022-11-22T06:12:23.245Z,96571.38
2022-11-22T06:17:25.200Z,96582.09
2022-11-22T06:22:27.656Z,96584.34
2022-11-22T06:27:30.164Z,96584.88
2022-11-22T06:32:35.282Z,96593.19
2022-11-22T06:37:37.226Z,96591.28
2022-11-22T06:42:39.098Z,96597.06
2022-11-22T06:47:41.243Z,96601.22
2022-11-22T06:52:43.398Z,96614.50
2022-11-22T06:57:50.937Z,96607.66
2022-11-22T07:02:53.453Z,96601.41
2022-11-22T07:08:04.610Z,96603.84
2022-11-22T07:13:09.526Z,96618.88
2022-11-22T07:18:11.789Z,96623.84
2022-11-22T07:23:15.850Z,96621.78
2022-11-22T07:28:17.783Z,96619.09
2022-11-22T07:33:20.042Z,96625.00
2022-11-22T07:38:22.068Z,96630.78
2022-11-22T07:43:25.186Z,96641.66
2022-11-22T07:48:27.365Z,96653.22
2022-11-22T07:53:30.391Z,96638.50
2022-11-22T07:58:34.273Z,96639.97
2022-11-22T08:03:36.996Z,96642.22
2022-11-22T08:08:39.558Z,96641.78
2022-11-22T08:13:41.527Z,96650.75
2022-11-22T08:18:48.884Z,96655.41
2022-11-22T08:23:50.721Z,96657.38
2022-11-22T08:28:52.612Z,96664.59
2022-11-22T08:33:54.470Z,96674.25
2022-11-22T08:38:56.508Z,96669.47
2022-11-22T08:43:58.461Z,96687.44
2022-11-22T08:49:00.301Z,96696.44
2022-11-22T08:54:02.109Z,96698.53
2022-11-22T08:59:04.310Z,96701.28
2022-11-22T09:04:06.211Z,96706.75
2022-11-22T09:09:35.817Z,96708.34
2022-11-22T09:14:29.867Z,96706.63
2022-11-22T09:19:32.499Z,96706.97
2022-11-22T09:24:34.754Z,96727.03
2022-11-22T09:29:36.559Z,96731.22
2022-11-22T09:34:38.446Z,96733.16
2022-11-22T09:39:45.210Z,96737.03
2022-11-22T09:45:20.806Z,96733.53
2022-11-22T09:50:31.833Z,96713.53
2022-11-22T09:55:49.106Z,96715.13
2022-11-22T10:00:53.164Z,96720.41
2022-11-22T10:06:05.945Z,96733.88
2022-11-22T10:11:22.062Z,96741.91
2022-11-22T10:16:36.258Z,96733.59
2022-11-22T10:21:38.263Z,96749.66
2022-11-22T10:26:40.824Z,96748.22
2022-11-22T10:32:18.044Z,96758.00
2022-11-22T10:37:25.613Z,96752.09
2022-11-22T10:42:53.589Z,96751.63
2022-11-22T10:48:01.287Z,96743.78
2022-11-22T10:53:32.107Z,96751.50
2022-11-22T10:58:58.366Z,96759.53
2022-11-22T11:04:03.029Z,96761.78
2022-11-22T11:14:52.581Z,96767.06
2022-11-22T11:19:56.794Z,96761.94
2022-11-22T11:25:43.483Z,96748.94
2022-11-22T11:30:47.377Z,96751.66
2022-11-22T11:35:52.391Z,96747.31
2022-11-22T11:40:54.950Z,96734.31
2022-11-22T11:46:19.643Z,96734.66
2022-11-22T11:51:50.859Z,96726.31
2022-11-22T11:56:58.786Z,96717.97
2022-11-22T12:02:09.534Z,96725.34
2022-11-22T12:07:27.230Z,96738.50
2022-11-22T12:12:51.507Z,96732.06
2022-11-22T12:18:00.385Z,96744.56
2022-11-22T12:23:32.538Z,96741.53
2022-11-22T12:28:34.586Z,96735.91
2022-11-22T12:34:08.093Z,96744.41
2022-11-22T12:39:15.710Z,96737.84
2022-11-22T12:44:21.009Z,96744.56
2022-11-22T12:49:38.982Z,96740.06
2022-11-22T12:54:53.631Z,96732.38
2022-11-22T13:00:14.414Z,96735.59
2022-11-22T13:05:24.474Z,96735.44
2022-11-22T13:10:40.412Z,96729.50
2022-11-22T13:15:45.208Z,96736.56
2022-11-22T13:21:33.065Z,96744.09
2022-11-22T13:26:59.024Z,96741.69
2022-11-22T13:32:07.032Z,96732.38
2022-11-22T13:37:17.865Z,96727.25
2022-11-22T13:42:27.594Z,96735.28
2022-11-22T13:47:42.891Z,96728.22
2022-11-22T13:52:53.837Z,96730.16
2022-11-22T13:57:55.888Z,96739.13
2022-11-22T14:03:16.171Z,96740.09
2022-11-22T14:08:33.513Z,96730.78
2022-11-22T14:13:57.339Z,96727.59
2022-11-22T14:19:32.002Z,96733.03
2022-11-22T14:25:16.131Z,96732.38
2022-11-22T14:30:19.537Z,96742.66
2022-11-22T14:35:30.022Z,96744.09
2022-11-22T14:40:40.592Z,96739.13
2022-11-22T14:45:55.572Z,96741.06
2022-11-22T14:51:30.748Z,96735.91
2022-11-22T14:56:37.705Z,96731.91
2022-11-22T15:01:52.507Z,96742.31
2022-11-22T15:09:24.044Z,96737.34
2022-11-22T15:12:41.711Z,96739.75
2022-11-22T16:01:57.769Z,96790.91
2022-11-22T16:07:02.892Z,96797.81
2022-11-22T16:12:24.148Z,96799.75
2022-11-22T16:17:33.291Z,96788.81
2022-11-22T16:22:35.232Z,96784.66
2022-11-22T16:27:45.289Z,96778.72
2022-11-22T16:32:53.963Z,96782.41
2022-11-22T16:37:56.110Z,96787.03
2022-11-22T16:42:58.002Z,96802.59
2022-11-22T16:48:24.574Z,96798.72
2022-11-22T16:53:22.078Z,96817.66
2022-11-22T16:58:23.944Z,96820.53
2022-11-22T17:03:29.858Z,96830.13
2022-11-22T17:08:31.784Z,96840.41
2022-11-22T17:13:33.745Z,96847.44
2022-11-22T17:18:35.555Z,96853.19
2022-11-22T17:23:39.197Z,96844.03
2022-11-22T17:28:41.613Z,96852.19
2022-11-22T17:33:43.950Z,96847.22
2022-11-22T17:38:45.962Z,96855.88
2022-11-22T17:43:48.016Z,96867.09
2022-11-22T17:48:53.106Z,96874.94
2022-11-22T17:53:55.785Z,96878.75
2022-11-22T17:58:57.588Z,96889.31
2022-11-22T18:03:59.560Z,96895.25
2022-11-22T18:09:01.609Z,96904.69
2022-11-22T18:14:04.644Z,96898.91
2022-11-22T18:19:06.923Z,96886.25
2022-11-22T18:24:09.326Z,96890.38
2022-11-22T18:34:35.737Z,96900.72
2022-11-22T18:39:39.886Z,96917.66
2022-11-22T18:44:43.282Z,96924.69
2022-11-22T18:49:45.685Z,96928.72
2022-11-22T18:54:48.581Z,96922.47
2022-11-22T18:59:50.772Z,96927.97
2022-11-22T19:04:54.239Z,96936.97
2022-11-22T19:09:57.376Z,96933.16
2022-11-22T19:14:59.323Z,96919.38
2022-11-22T19:20:01.082Z,96930.28
2022-11-22T19:25:03.021Z,96929.34
2022-11-22T19:30:05.531Z,96948.91
2022-11-22T19:35:08.381Z,96950.22
2022-11-22T19:40:11.177Z,96953.41
2022-11-22T19:45:13.008Z,96964.03
2022-11-22T19:50:14.764Z,96975.91
2022-11-22T19:55:16.667Z,96971.44
2022-11-22T20:00:18.530Z,96977.22
2022-11-22T20:05:20.538Z,96970.97
2022-11-22T20:10:22.787Z,96971.78
2022-11-22T20:15:25.594Z,96979.47
2022-11-22T20:20:27.514Z,96977.72
2022-11-22T20:25:29.286Z,96988.13
2022-11-22T20:30:31.072Z,96982.19
2022-11-22T20:35:32.949Z,96984.09
2022-11-22T20:40:34.728Z,96985.88
2022-11-22T20:45:36.824Z,96991.00
2022-11-22T20:50:38.610Z,96987.63
2022-11-22T20:55:40.492Z,96986.16
2022-11-22T21:00:44.808Z,96988.22
2022-11-22T21:05:50.430Z,96992.03
2022-11-22T21:10:52.279Z,96981.28
2022-11-22T21:16:08.772Z,96981.41
2022-11-22T21:21:25.092Z,96986.69
2022-11-22T21:26:27.601Z,96989.25
2022-11-22T21:31:29.397Z,96988.97
2022-11-22T21:36:31.207Z,96996.38
2022-11-22T21:41:41.229Z,96991.38
2022-11-22T21:46:44.011Z,96993.13
2022-11-22T21:51:45.905Z,97002.75
2022-11-22T21:56:48.111Z,97005.59
2022-11-22T22:01:49.900Z,96996.31
2022-11-22T22:06:51.867Z,96999.00
2022-11-22T22:11:53.570Z,96991.63
2022-11-22T22:16:55.399Z,96995.78
2022-11-22T22:21:57.163Z,97005.91
2022-11-22T22:26:58.973Z,96997.91
2022-11-22T22:32:00.798Z,97004.50
2022-11-22T22:37:02.758Z,97006.25
2022-11-22T22:42:04.675Z,97004.66
2022-11-22T22:47:06.872Z,97005.44
2022-11-22T22:52:08.717Z,97014.91
2022-11-22T22:57:10.596Z,97011.69
2022-11-22T23:02:12.417Z,97016.31
2022-11-22T23:07:14.261Z,97003.91
2022-11-22T23:12:16.046Z,97012.56
2022-11-22T23:17:20.698Z,97019.97
2022-11-22T23:22:25.908Z,97010.38
2022-11-22T23:27:28.448Z,97010.38
2022-11-22T23:32:33.079Z,97012.28
2022-11-22T23:37:37.940Z,97015.94
2022-11-22T23:42:39.739Z,97018.78
2022-11-22T23:47:41.522Z,97019.22
2022-11-22T23:52:43.405Z,97031.69
2022-11-22T23:57:45.225Z,97031.31
